Time;durP1;ratioP1;P1;durP2;ratioP2;P2;SDS_P1;SDS_P2;PMS_P1;PMS_P2;Temp;Humidity;BMP_temperature;BMP_pressure;BME280_temperature;BME280_humidity;BME280_pressure;Samples;Min_cycle;Max_cycle;Signal;HPM_P1;HPM_P2
2023/05/08 00:02:14;;;;;;;5.63;4.93;;;11.50;99.90;;;;;;5053067;28;20570;-76
2023/05/08 00:04:41;;;;;;;5.35;4.95;;;11.50;99.90;;;;;;5066989;28;20607;-76
2023/05/08 00:07:08;;;;;;;5.45;5.03;;;11.50;99.90;;;;;;5073625;28;20220;-77
2023/05/08 00:09:35;;;;;;;6.25;5.65;;;11.40;99.90;;;;;;5062443;28;20224;-76
2023/05/08 00:12:02;;;;;;;5.70;5.22;;;11.40;99.90;;;;;;5053459;28;20280;-75
2023/05/08 00:14:29;;;;;;;5.72;4.97;;;11.30;99.90;;;;;;5052651;28;20279;-76
2023/05/08 00:16:56;;;;;;;5.32;4.85;;;11.30;99.90;;;;;;5052071;28;20256;-76
2023/05/08 00:19:24;;;;;;;5.07;4.68;;;11.30;99.90;;;;;;5052224;28;20221;-77
2023/05/08 00:21:51;;;;;;;4.70;4.40;;;11.30;99.90;;;;;;5053175;28;20634;-75
2023/05/08 00:24:18;;;;;;;5.55;5.05;;;11.20;99.90;;;;;;5052794;28;20650;-75
2023/05/08 00:26:45;;;;;;;6.68;6.07;;;11.20;99.90;;;;;;5052967;28;20217;-75
2023/05/08 00:29:18;;;;;;;5.80;5.30;;;11.20;99.90;;;;;;5053068;28;20232;-75
2023/05/08 00:31:45;;;;;;;5.85;5.07;;;11.10;99.90;;;;;;5052833;28;20216;-75
2023/05/08 00:34:12;;;;;;;6.43;5.82;;;11.20;99.90;;;;;;5052895;28;20659;-76
2023/05/08 00:36:40;;;;;;;5.43;5.03;;;11.10;99.90;;;;;;5051503;28;20240;-76
2023/05/08 00:39:07;;;;;;;6.00;5.40;;;11.10;99.90;;;;;;5053123;28;20221;-76
2023/05/08 00:41:34;;;;;;;5.88;5.38;;;11.10;99.90;;;;;;5051821;28;20650;-76
2023/05/08 00:44:01;;;;;;;6.15;5.65;;;11.10;99.90;;;;;;5053021;28;20286;-76
2023/05/08 00:46:28;;;;;;;6.00;5.40;;;11.10;99.90;;;;;;5051415;28;20231;-76
2023/05/08 00:48:55;;;;;;;6.18;5.68;;;11.10;99.90;;;;;;5052943;28;20228;-76
2023/05/08 00:51:24;;;;;;;5.13;4.72;;;11.10;99.90;;;;;;5051942;28;20227;-76
2023/05/08 00:53:52;;;;;;;6.68;6.07;;;11.00;99.90;;;;;;5052497;28;20232;-76
2023/05/08 00:56:21;;;;;;;5.82;5.05;;;11.00;99.90;;;;;;5052741;28;20225;-76
2023/05/08 01:01:53;;;;;;;6.32;5.72;;;10.80;99.90;;;;;;5038078;28;20216;-76
2023/05/08 01:04:22;;;;;;;7.00;6.32;;;10.80;99.90;;;;;;5063189;28;20224;-75
2023/05/08 01:06:50;;;;;;;6.43;5.82;;;10.70;99.90;;;;;;5059804;28;20232;-76
2023/05/08 01:09:18;;;;;;;5.75;5.25;;;10.70;99.90;;;;;;5056290;28;20232;-76
2023/05/08 01:11:52;;;;;;;6.88;6.38;;;10.60;99.90;;;;;;5031626;28;20235;-75
2023/05/08 01:14:25;;;;;;;6.45;5.93;;;10.60;99.90;;;;;;5032213;28;20220;-76
2023/05/08 01:17:02;;;;;;;6.10;5.60;;;10.60;99.90;;;;;;5031830;28;20279;-76
2023/05/08 01:19:53;;;;;;;5.57;5.07;;;10.60;99.90;;;;;;5032405;28;20225;-76
2023/05/08 01:22:39;;;;;;;10.40;5.70;;;10.60;99.90;;;;;;5032666;28;20610;-76
2023/05/08 01:25:51;;;;;;;6.18;5.72;;;10.60;99.90;;;;;;5034022;28;20560;-76
2023/05/08 01:28:38;;;;;;;7.00;6.18;;;10.50;99.90;;;;;;5016323;28;20220;-75
2023/05/08 01:31:15;;;;;;;7.03;6.32;;;10.40;99.90;;;;;;5055016;28;20229;-75
2023/05/08 01:33:50;;;;;;;6.93;5.35;;;10.40;99.90;;;;;;5056471;28;20247;-76
2023/05/08 01:36:26;;;;;;;6.28;5.75;;;10.40;99.90;;;;;;5054873;28;20244;-75
2023/05/08 01:39:05;;;;;;;7.00;6.30;;;10.40;99.90;;;;;;5056216;28;20259;-76
2023/05/08 01:41:36;;;;;;;6.28;5.78;;;10.40;99.90;;;;;;5055702;28;20217;-75
2023/05/08 01:44:13;;;;;;;6.53;5.93;;;10.40;99.90;;;;;;5056075;28;20307;-76
2023/05/08 01:46:42;;;;;;;6.38;5.65;;;10.40;99.90;;;;;;5055737;28;20673;-77
2023/05/08 01:49:17;;;;;;;6.30;5.75;;;10.40;99.90;;;;;;5056055;28;20697;-76
2023/05/08 01:51:48;;;;;;;7.32;6.60;;;10.40;99.90;;;;;;5055513;28;20308;-77
2023/05/08 01:54:19;;;;;;;5.65;5.18;;;10.40;99.90;;;;;;5056133;28;20726;-76
2023/05/08 01:56:49;;;;;;;6.50;5.93;;;10.40;99.90;;;;;;5055785;28;20635;-76
2023/05/08 01:59:19;;;;;;;6.53;5.93;;;10.40;99.90;;;;;;5054587;28;20244;-75
2023/05/08 02:01:48;;;;;;;6.30;4.93;;;10.40;99.90;;;;;;5055790;28;20220;-76
2023/05/08 02:04:18;;;;;;;6.15;5.65;;;10.40;99.90;;;;;;5035730;28;20240;-76
2023/05/08 02:06:45;;;;;;;6.50;6.00;;;10.50;99.90;;;;;;5035190;28;20241;-76
2023/05/08 02:09:13;;;;;;;6.20;5.70;;;10.40;99.90;;;;;;5047273;28;20564;-76
2023/05/08 02:11:43;;;;;;;8.50;6.15;;;10.40;99.90;;;;;;5055381;28;20824;-76
2023/05/08 02:14:13;;;;;;;7.30;6.30;;;10.50;99.90;;;;;;5055284;28;20239;-76
2023/05/08 02:16:42;;;;;;;6.78;6.18;;;10.40;99.90;;;;;;5055100;28;20235;-75
2023/05/08 02:19:11;;;;;;;8.95;5.68;;;10.30;99.90;;;;;;5055584;28;20221;-75
2023/05/08 02:21:41;;;;;;;6.72;6.15;;;10.40;99.90;;;;;;5045392;28;20236;-77
2023/05/08 02:24:09;;;;;;;5.95;5.55;;;10.40;99.90;;;;;;5055205;28;20224;-75
2023/05/08 02:26:37;;;;;;;6.80;6.18;;;10.40;99.90;;;;;;5052957;28;20256;-75
2023/05/08 02:29:04;;;;;;;5.63;5.22;;;10.40;99.90;;;;;;5054133;28;20307;-77
2023/05/08 02:31:31;;;;;;;8.25;6.78;;;10.30;99.90;;;;;;5054693;28;20687;-75
2023/05/08 02:34:00;;;;;;;7.25;6.55;;;10.30;99.90;;;;;;5055219;28;20224;-75
2023/05/08 02:36:28;;;;;;;6.50;6.00;;;10.20;99.90;;;;;;5055066;28;20236;-75
2023/05/08 02:41:54;;;;;;;6.78;6.28;;;10.20;99.90;;;;;;5052923;28;20319;-75
2023/05/08 02:44:21;;;;;;;6.20;5.70;;;10.20;99.90;;;;;;5053938;28;20362;-75
2023/05/08 02:46:53;;;;;;;6.75;6.15;;;10.20;99.90;;;;;;5053766;28;20550;-75
2023/05/08 02:49:32;;;;;;;7.43;6.80;;;10.20;99.90;;;;;;5054643;28;20629;-75
2023/05/08 02:52:05;;;;;;;6.57;6.10;;;10.10;99.90;;;;;;5054218;28;20236;-75
2023/05/08 02:54:38;;;;;;;7.90;6.47;;;10.20;99.90;;;;;;5054631;28;20225;-75
2023/05/08 02:57:14;;;;;;;6.95;6.35;;;10.10;99.90;;;;;;5054813;28;20278;-75
2023/05/08 02:59:46;;;;;;;6.88;6.38;;;10.10;99.90;;;;;;5054292;28;20239;-76
2023/05/08 03:02:19;;;;;;;7.15;6.50;;;10.10;99.90;;;;;;5054766;28;20232;-75
2023/05/08 03:04:50;;;;;;;6.85;6.25;;;10.10;99.90;;;;;;5054072;28;20225;-76
2023/05/08 03:07:20;;;;;;;6.82;6.22;;;10.10;99.90;;;;;;5054948;28;20666;-76
2023/05/08 03:09:55;;;;;;;6.35;5.85;;;10.10;99.90;;;;;;5053748;28;20237;-76
2023/05/08 03:12:26;;;;;;;6.65;6.15;;;10.10;99.90;;;;;;5053446;28;20220;-76
2023/05/08 03:15:01;;;;;;;7.65;6.95;;;10.10;99.90;;;;;;5053531;28;20260;-77
2023/05/08 03:17:31;;;;;;;7.18;6.57;;;10.00;99.90;;;;;;5054594;28;20220;-76
2023/05/08 03:20:04;;;;;;;7.40;6.80;;;10.00;99.90;;;;;;5053795;28;20233;-76
2023/05/08 03:22:37;;;;;;;6.45;5.95;;;10.00;99.90;;;;;;5054608;28;20279;-77
2023/05/08 03:25:08;;;;;;;7.63;6.93;;;9.90;99.90;;;;;;5054035;28;20247;-76
2023/05/08 03:27:36;;;;;;;7.30;6.60;;;9.90;99.90;;;;;;5054385;28;20232;-76
2023/05/08 03:30:06;;;;;;;9.15;7.20;;;9.90;99.90;;;;;;5053654;28;20260;-76
2023/05/08 03:32:34;;;;;;;6.88;6.25;;;9.90;99.90;;;;;;5054253;28;20324;-76
2023/05/08 03:35:02;;;;;;;6.95;6.35;;;9.90;99.90;;;;;;5053945;28;20686;-76
2023/05/08 03:37:29;;;;;;;7.60;6.90;;;9.90;99.90;;;;;;5053952;28;20307;-76
2023/05/08 03:39:57;;;;;;;6.80;6.30;;;9.90;99.90;;;;;;5053385;28;20252;-76
2023/05/08 03:42:26;;;;;;;8.32;7.05;;;9.90;99.90;;;;;;5054063;28;20225;-77
2023/05/08 03:44:54;;;;;;;8.15;7.18;;;9.90;99.90;;;;;;5053535;28;20236;-76
2023/05/08 03:47:23;;;;;;;8.27;7.55;;;9.80;99.90;;;;;;5053917;28;20216;-75
2023/05/08 03:49:50;;;;;;;7.07;6.38;;;9.80;99.90;;;;;;5052815;28;20256;-76
2023/05/08 03:52:17;;;;;;;6.80;6.30;;;9.80;99.90;;;;;;5053614;28;20667;-76
2023/05/08 03:54:44;;;;;;;7.32;6.72;;;9.80;99.90;;;;;;5052659;28;20267;-76
2023/05/08 03:57:11;;;;;;;8.30;7.55;;;9.80;99.90;;;;;;5053519;28;20243;-75
2023/05/08 03:59:46;;;;;;;7.53;6.93;;;9.80;99.90;;;;;;5053930;28;20269;-76
2023/05/08 04:02:21;;;;;;;6.93;6.22;;;9.80;99.90;;;;;;5053048;28;20258;-76
2023/05/08 04:05:00;;;;;;;7.82;7.13;;;9.90;99.90;;;;;;5053644;28;20236;-76
2023/05/08 04:07:32;;;;;;;7.95;7.15;;;9.90;99.90;;;;;;5055498;28;20220;-75
2023/05/08 04:10:05;;;;;;;7.05;6.35;;;9.80;99.90;;;;;;5054391;28;20221;-76
2023/05/08 04:12:39;;;;;;;19.92;8.32;;;9.80;99.90;;;;;;5054709;28;20694;-76
2023/05/08 04:15:14;;;;;;;7.65;6.70;;;9.80;99.90;;;;;;5054709;28;20270;-75
2023/05/08 04:17:45;;;;;;;7.82;7.07;;;9.80;99.90;;;;;;5054583;28;20224;-75
2023/05/08 04:20:17;;;;;;;7.80;6.97;;;9.80;99.90;;;;;;5053646;28;20557;-75
2023/05/08 04:22:47;;;;;;;7.97;7.15;;;9.70;99.90;;;;;;5054136;28;20229;-75
2023/05/08 04:25:17;;;;;;;7.15;6.45;;;9.70;99.90;;;;;;5053164;28;20235;-75
2023/05/08 04:27:45;;;;;;;8.52;7.68;;;9.70;99.90;;;;;;5055751;28;20217;-76
2023/05/08 04:30:17;;;;;;;8.02;7.32;;;9.80;99.90;;;;;;5053756;28;20216;-76
2023/05/08 04:32:45;;;;;;;7.65;7.00;;;9.80;99.90;;;;;;5055383;28;20556;-76
2023/05/08 04:35:13;;;;;;;8.02;7.22;;;9.80;99.90;;;;;;5055320;28;20233;-76
2023/05/08 04:37:42;;;;;;;8.13;7.10;;;9.80;99.90;;;;;;5054815;28;20231;-75
2023/05/08 04:40:10;;;;;;;7.32;6.70;;;9.70;99.90;;;;;;5053763;28;20228;-76
2023/05/08 04:42:38;;;;;;;10.20;7.95;;;9.70;99.90;;;;;;5054093;28;20274;-76
2023/05/08 04:45:08;;;;;;;6.75;6.13;;;9.70;99.90;;;;;;5052872;28;20247;-76
2023/05/08 04:47:36;;;;;;;9.35;7.15;;;9.80;99.90;;;;;;5053597;28;20241;-76
2023/05/08 04:50:03;;;;;;;7.20;6.47;;;9.80;99.90;;;;;;5052831;28;20271;-75
2023/05/08 04:52:30;;;;;;;8.70;6.85;;;9.90;99.90;;;;;;5053441;28;20370;-77
2023/05/08 04:54:57;;;;;;;8.38;7.00;;;10.00;99.90;;;;;;5053186;28;20677;-77
2023/05/08 04:57:24;;;;;;;8.15;7.00;;;10.00;99.90;;;;;;5053183;28;20283;-76
2023/05/08 04:59:51;;;;;;;8.77;7.00;;;10.10;99.90;;;;;;5053785;28;20305;-76
2023/05/08 05:02:18;;;;;;;8.82;7.38;;;10.10;99.90;;;;;;5052638;28;20216;-77
2023/05/08 05:04:46;;;;;;;7.82;6.28;;;10.20;99.90;;;;;;5051955;28;20239;-75
2023/05/08 05:07:13;;;;;;;6.45;5.95;;;10.20;99.90;;;;;;5052924;28;21206;-75
2023/05/08 05:09:40;;;;;;;6.55;5.90;;;10.20;99.90;;;;;;5053154;28;20228;-75
2023/05/08 05:12:07;;;;;;;6.90;6.30;;;10.30;99.90;;;;;;5052298;28;20282;-75
2023/05/08 05:14:34;;;;;;;7.80;6.75;;;10.20;99.90;;;;;;5051695;28;20316;-75
2023/05/08 05:17:01;;;;;;;9.45;7.38;;;10.30;99.90;;;;;;5052563;28;20251;-75
2023/05/08 05:19:28;;;;;;;8.18;7.30;;;10.30;99.90;;;;;;5053416;28;20231;-75
2023/05/08 05:21:57;;;;;;;8.02;7.13;;;10.30;99.90;;;;;;5051732;28;20296;-76
2023/05/08 05:24:24;;;;;;;7.25;6.72;;;10.30;99.90;;;;;;5053587;28;20245;-75
2023/05/08 05:26:51;;;;;;;8.95;7.95;;;10.40;99.90;;;;;;5053466;28;20232;-75
2023/05/08 05:29:18;;;;;;;7.63;6.82;;;10.40;99.90;;;;;;5052196;28;20221;-75
2023/05/08 05:31:44;;;;;;;8.85;6.72;;;10.50;99.90;;;;;;5052808;28;20263;-75
2023/05/08 05:34:12;;;;;;;6.40;5.90;;;10.40;99.90;;;;;;5052901;28;20324;-76
2023/05/08 05:36:39;;;;;;;7.07;6.45;;;10.50;99.90;;;;;;5052850;28;20256;-75
2023/05/08 05:39:07;;;;;;;6.72;6.13;;;10.60;99.90;;;;;;5051806;28;20322;-75
2023/05/08 05:41:35;;;;;;;7.00;6.30;;;10.60;99.90;;;;;;5052111;28;20221;-76
2023/05/08 05:44:02;;;;;;;5.95;5.35;;;10.60;99.90;;;;;;5043627;28;20243;-75
2023/05/08 05:46:32;;;;;;;6.57;5.93;;;10.70;99.90;;;;;;5052169;28;20224;-75
2023/05/08 05:48:59;;;;;;;6.40;5.80;;;10.60;99.90;;;;;;5052346;28;20316;-76
2023/05/08 05:51:26;;;;;;;7.40;6.32;;;10.70;99.90;;;;;;5051414;28;20229;-76
2023/05/08 05:53:53;;;;;;;6.40;5.80;;;10.70;99.90;;;;;;5052180;28;20290;-76
2023/05/08 05:56:22;;;;;;;5.70;4.95;;;10.90;99.90;;;;;;5051534;28;20225;-75
2023/05/08 06:01:33;;;;;;;6.32;5.72;;;11.00;99.90;;;;;;5049365;28;20213;-75
2023/05/08 06:04:00;;;;;;;6.57;5.90;;;11.10;99.90;;;;;;5051847;28;20602;-76
2023/05/08 06:06:27;;;;;;;5.40;5.00;;;11.10;99.90;;;;;;5051351;28;20793;-75
2023/05/08 06:08:55;;;;;;;6.15;5.55;;;11.20;99.90;;;;;;5051968;28;20220;-75
2023/05/08 06:11:24;;;;;;;5.22;4.72;;;11.30;99.90;;;;;;5050399;28;20548;-75
2023/05/08 06:13:52;;;;;;;7.93;5.25;;;11.30;99.90;;;;;;5051932;28;20221;-76
2023/05/08 06:16:31;;;;;;;4.30;3.97;;;11.30;99.90;;;;;;5051611;28;20320;-76
2023/05/08 06:18:58;;;;;;;4.40;4.00;;;11.40;99.90;;;;;;5055800;28;20286;-76
2023/05/08 06:21:27;;;;;;;5.25;4.20;;;11.50;99.90;;;;;;5055064;28;20236;-76
2023/05/08 06:23:54;;;;;;;5.32;3.90;;;11.50;99.90;;;;;;5055286;28;20674;-77
2023/05/08 06:26:22;;;;;;;4.10;3.70;;;11.50;99.90;;;;;;5054533;28;20225;-76
2023/05/08 06:28:49;;;;;;;4.25;3.95;;;11.60;99.90;;;;;;5055148;28;20679;-76
2023/05/08 06:31:16;;;;;;;4.70;4.30;;;11.70;99.90;;;;;;5054595;28;20224;-76
2023/05/08 06:33:46;;;;;;;4.43;3.97;;;11.80;99.90;;;;;;5055310;28;20573;-76
2023/05/08 06:36:13;;;;;;;5.95;4.70;;;11.80;99.90;;;;;;5054689;28;20533;-76
2023/05/08 06:38:40;;;;;;;4.47;4.10;;;11.90;99.90;;;;;;5055393;28;20718;-76
2023/05/08 06:41:07;;;;;;;4.03;3.72;;;12.00;99.90;;;;;;5055105;28;20228;-76
2023/05/08 06:43:35;;;;;;;4.55;3.92;;;12.20;99.90;;;;;;5054598;28;20221;-76
2023/05/08 06:46:02;;;;;;;3.63;3.38;;;12.30;99.90;;;;;;5055005;28;20244;-76
2023/05/08 06:48:29;;;;;;;3.45;3.25;;;12.40;99.90;;;;;;5054322;28;20228;-75
2023/05/08 06:50:56;;;;;;;4.03;3.65;;;12.50;99.60;;;;;;5054266;28;20263;-76
2023/05/08 06:53:23;;;;;;;4.18;3.78;;;12.60;99.20;;;;;;5054311;28;20228;-76
2023/05/08 06:55:50;;;;;;;3.58;3.28;;;12.70;98.70;;;;;;5054442;28;20690;-76
2023/05/08 06:58:17;;;;;;;3.65;3.35;;;12.60;98.20;;;;;;5054359;28;20259;-77
2023/05/08 07:00:45;;;;;;;6.22;2.95;;;12.70;98.40;;;;;;5055009;28;20228;-76
2023/05/08 07:03:12;;;;;;;4.05;3.75;;;12.80;98.10;;;;;;5054378;28;20255;-76
2023/05/08 07:05:39;;;;;;;4.55;3.55;;;12.80;97.40;;;;;;5054414;28;20248;-77
2023/05/08 07:08:05;;;;;;;3.75;3.45;;;12.80;97.20;;;;;;5054514;28;20612;-76
2023/05/08 07:10:32;;;;;;;4.07;3.78;;;12.90;97.10;;;;;;5053891;28;20251;-76
2023/05/08 07:12:59;;;;;;;3.33;3.13;;;12.90;97.10;;;;;;5054261;28;20278;-76
2023/05/08 07:15:26;;;;;;;3.67;3.38;;;12.90;96.80;;;;;;5054247;28;20675;-76
2023/05/08 07:17:57;;;;;;;4.07;3.35;;;13.10;96.60;;;;;;5054360;28;20750;-76
2023/05/08 07:20:24;;;;;;;3.63;3.33;;;13.20;96.60;;;;;;5053844;28;20220;-76
2023/05/08 07:22:51;;;;;;;3.95;3.65;;;13.40;96.00;;;;;;5054347;28;20467;-76
2023/05/08 07:25:18;;;;;;;3.65;3.35;;;13.50;95.70;;;;;;5051132;28;20237;-76
2023/05/08 07:27:46;;;;;;;4.03;3.30;;;13.60;95.30;;;;;;5043311;28;20355;-75
2023/05/08 07:30:13;;;;;;;4.20;3.10;;;13.80;94.80;;;;;;5054355;28;20481;-74
2023/05/08 07:32:44;;;;;;;4.77;3.80;;;14.00;94.70;;;;;;5053194;28;20587;-76
2023/05/08 07:35:12;;;;;;;3.83;3.40;;;14.10;94.00;;;;;;5058082;28;20797;-76
2023/05/08 07:37:39;;;;;;;4.33;3.93;;;14.20;93.60;;;;;;5036071;28;20534;-76
2023/05/08 07:40:07;;;;;;;3.80;3.30;;;14.20;93.20;;;;;;5033794;28;20502;-76
2023/05/08 07:42:39;;;;;;;4.17;3.83;;;14.30;92.80;;;;;;5033409;28;20460;-76
2023/05/08 07:45:08;;;;;;;3.87;3.50;;;14.30;92.30;;;;;;5034012;28;20534;-76
2023/05/08 07:47:35;;;;;;;4.53;3.47;;;14.50;92.20;;;;;;5032692;28;20533;-76
2023/05/08 07:50:02;;;;;;;3.90;3.60;;;14.50;91.70;;;;;;5033808;28;20475;-76
2023/05/08 07:52:33;;;;;;;4.50;3.07;;;14.60;91.10;;;;;;5033334;28;20500;-76
2023/05/08 07:54:59;;;;;;;3.50;2.93;;;14.70;90.80;;;;;;5032558;28;20503;-76
2023/05/08 07:57:26;;;;;;;3.70;3.40;;;14.60;90.30;;;;;;5033187;28;20970;-76
2023/05/08 07:59:53;;;;;;;2.97;2.73;;;14.70;90.60;;;;;;5033501;28;20574;-76
2023/05/08 08:02:20;;;;;;;3.60;3.30;;;14.80;89.40;;;;;;5033435;28;20552;-76
2023/05/08 08:04:49;;;;;;;3.70;3.30;;;14.90;88.80;;;;;;5033678;28;20543;-77
2023/05/08 08:07:16;;;;;;;3.60;3.30;;;14.90;87.90;;;;;;5033418;28;20503;-76
2023/05/08 08:09:44;;;;;;;3.20;3.00;;;14.90;87.50;;;;;;5055693;28;20470;-76
2023/05/08 08:12:11;;;;;;;3.70;3.40;;;14.90;87.20;;;;;;5033394;28;20468;-76
2023/05/08 08:14:38;;;;;;;3.80;3.50;;;14.90;87.10;;;;;;5032364;28;20504;-76
2023/05/08 08:17:05;;;;;;;5.40;3.57;;;14.90;87.20;;;;;;5033158;28;20866;-76
2023/05/08 08:19:32;;;;;;;3.60;3.30;;;15.00;86.60;;;;;;5032749;28;20476;-76
2023/05/08 08:21:59;;;;;;;3.93;3.63;;;15.00;86.30;;;;;;5033240;28;20467;-76
2023/05/08 08:24:28;;;;;;;4.20;3.33;;;15.00;85.40;;;;;;5032975;28;21007;-76
2023/05/08 08:26:56;;;;;;;3.23;2.93;;;15.10;85.40;;;;;;5033068;28;20456;-76
2023/05/08 08:29:23;;;;;;;2.93;2.73;;;15.20;84.80;;;;;;5033262;28;20503;-76
2023/05/08 08:31:50;;;;;;;3.27;3.07;;;15.30;83.90;;;;;;5032531;28;21880;-76
2023/05/08 08:34:22;;;;;;;9.87;3.10;;;15.30;83.60;;;;;;5024527;28;20464;-75
2023/05/08 08:36:50;;;;;;;3.47;3.17;;;15.30;82.70;;;;;;5032728;28;20575;-76
2023/05/08 08:39:17;;;;;;;4.43;3.07;;;15.40;81.30;;;;;;5032538;28;20465;-76
2023/05/08 08:41:45;;;;;;;2.73;2.53;;;15.50;80.50;;;;;;5031753;28;20472;-75
2023/05/08 08:44:13;;;;;;;3.70;3.37;;;15.50;78.60;;;;;;5033231;28;20468;-75
2023/05/08 08:46:52;;;;;;;2.87;2.67;;;15.50;78.00;;;;;;5031950;28;20495;-74
2023/05/08 08:49:24;;;;;;;3.27;2.80;;;15.50;77.50;;;;;;5032966;28;20522;-76
2023/05/08 08:51:56;;;;;;;3.43;2.83;;;15.50;77.30;;;;;;5043072;28;20483;-76
2023/05/08 08:54:24;;;;;;;3.00;2.67;;;15.60;77.60;;;;;;5042874;28;20787;-76
2023/05/08 08:56:56;;;;;;;3.10;2.80;;;15.50;77.20;;;;;;5032165;28;20783;-76
2023/05/08 08:59:26;;;;;;;3.70;3.40;;;15.60;76.90;;;;;;5051466;28;20490;-75
2023/05/08 09:01:57;;;;;;;3.97;2.80;;;15.70;75.50;;;;;;5034973;28;20468;-75
2023/05/08 09:04:28;;;;;;;4.23;3.13;;;15.70;74.70;;;;;;5032676;28;20553;-75
2023/05/08 09:06:57;;;;;;;3.10;2.83;;;15.70;73.70;;;;;;5031859;28;20499;-75
2023/05/08 09:09:24;;;;;;;2.70;2.50;;;15.60;70.70;;;;;;5032845;28;20487;-76
2023/05/08 09:11:52;;;;;;;2.77;2.50;;;15.60;70.10;;;;;;5032325;28;20472;-76
2023/05/08 09:14:19;;;;;;;3.10;2.40;;;15.70;70.80;;;;;;5032558;28;20810;-75
2023/05/08 09:16:48;;;;;;;5.80;2.47;;;15.70;69.50;;;;;;5031953;28;20537;-76
2023/05/08 09:19:15;;;;;;;2.80;2.60;;;15.60;68.30;;;;;;5032592;28;21012;-76
2023/05/08 09:21:47;;;;;;;3.00;2.50;;;15.60;69.30;;;;;;5030864;28;20470;-76
2023/05/08 09:24:14;;;;;;;3.77;3.30;;;15.60;68.70;;;;;;5032581;28;20958;-75
2023/05/08 09:26:42;;;;;;;2.83;2.57;;;15.60;70.10;;;;;;5054314;28;20471;-75
2023/05/08 09:29:10;;;;;;;3.90;2.90;;;15.60;70.80;;;;;;5032084;28;20947;-75
2023/05/08 09:31:39;;;;;;;3.83;2.90;;;15.70;72.20;;;;;;5032336;28;20464;-75
2023/05/08 09:34:08;;;;;;;3.90;2.30;;;15.80;71.10;;;;;;5031841;28;20518;-75
2023/05/08 09:36:40;;;;;;;2.50;2.30;;;15.90;70.90;;;;;;5032399;28;20977;-76
2023/05/08 09:39:12;;;;;;;4.03;2.50;;;16.00;70.90;;;;;;5032566;28;20484;-76
2023/05/08 09:41:39;;;;;;;3.77;1.97;;;16.00;69.30;;;;;;5032548;28;20952;-75
2023/05/08 09:44:07;;;;;;;3.10;2.10;;;16.10;69.50;;;;;;5031968;28;20460;-77
2023/05/08 09:46:37;;;;;;;2.43;2.23;;;16.10;69.30;;;;;;5032545;28;20529;-76
2023/05/08 09:49:04;;;;;;;6.30;3.00;;;16.10;68.60;;;;;;5032991;28;20569;-76
2023/05/08 09:51:32;;;;;;;3.93;2.43;;;16.10;69.40;;;;;;5033678;28;20861;-76
2023/05/08 09:54:02;;;;;;;2.73;2.53;;;16.20;69.80;;;;;;5035764;28;20464;-75
2023/05/08 09:56:34;;;;;;;3.57;2.60;;;16.30;70.10;;;;;;5036076;28;20472;-77
2023/05/08 09:59:06;;;;;;;4.10;2.50;;;16.30;70.40;;;;;;5035048;28;20782;-76
2023/05/08 10:01:35;;;;;;;4.10;3.00;;;16.40;70.70;;;;;;5036025;28;20535;-76
2023/05/08 10:04:04;;;;;;;2.57;2.37;;;16.50;70.40;;;;;;5035558;28;20916;-75
2023/05/08 10:06:33;;;;;;;2.87;2.50;;;16.60;70.10;;;;;;5035831;28;20476;-76
2023/05/08 10:09:10;;;;;;;2.83;2.60;;;16.70;66.70;;;;;;5035306;28;20486;-76
2023/05/08 10:11:38;;;;;;;2.90;2.50;;;16.70;65.90;;;;;;5035592;28;20815;-74
2023/05/08 10:14:11;;;;;;;2.30;2.00;;;16.70;65.20;;;;;;5035048;28;20518;-76
2023/05/08 10:16:42;;;;;;;3.00;2.63;;;16.80;66.00;;;;;;5034987;28;20546;-75
2023/05/08 10:19:13;;;;;;;2.60;2.40;;;16.80;65.30;;;;;;5035088;28;20468;-76
2023/05/08 10:21:46;;;;;;;2.20;2.00;;;16.80;65.50;;;;;;5034795;28;20786;-76
2023/05/08 10:24:18;;;;;;;1.90;1.80;;;16.80;64.20;;;;;;5035238;28;20492;-76
2023/05/08 10:26:55;;;;;;;2.67;2.47;;;16.90;62.10;;;;;;5035577;28;20979;-76
2023/05/08 10:29:32;;;;;;;3.73;3.00;;;16.90;61.70;;;;;;5035182;28;20467;-76
2023/05/08 10:32:00;;;;;;;2.17;1.60;;;16.90;61.10;;;;;;5035332;28;20989;-76
2023/05/08 10:34:28;;;;;;;2.70;2.37;;;16.90;59.90;;;;;;5035475;28;20801;-75
2023/05/08 10:36:57;;;;;;;2.20;2.00;;;16.90;59.70;;;;;;5034889;28;20544;-77
2023/05/08 10:39:25;;;;;;;3.97;1.90;;;16.90;59.40;;;;;;5024308;28;20472;-76
2023/05/08 10:41:59;;;;;;;2.67;2.00;;;17.00;59.80;;;;;;5035312;28;20472;-76
2023/05/08 10:44:28;;;;;;;2.57;1.97;;;17.00;59.20;;;;;;5034446;28;20988;-76
2023/05/08 10:47:01;;;;;;;2.10;1.90;;;17.00;58.80;;;;;;5035074;28;20479;-76
2023/05/08 10:49:39;;;;;;;3.33;1.93;;;17.10;59.00;;;;;;5034872;28;20522;-76
2023/05/08 10:52:17;;;;;;;2.83;2.30;;;17.30;58.80;;;;;;5033923;28;20471;-76
2023/05/08 10:55:25;;;;;;;2.23;2.03;;;17.20;58.00;;;;;;5034887;28;20976;-76
2023/05/08 10:58:11;;;;;;;4.30;2.20;;;17.30;58.10;;;;;;5033835;28;20464;-76
2023/05/08 11:01:11;;;;;;;2.27;2.03;;;17.30;57.60;;;;;;5034320;28;20464;-76
2023/05/08 11:03:41;;;;;;;6.40;1.87;;;17.40;58.70;;;;;;5033764;28;20460;-76
2023/05/08 11:06:08;;;;;;;3.00;2.33;;;17.50;58.40;;;;;;5035124;28;20465;-76
2023/05/08 11:08:53;;;;;;;3.93;2.40;;;17.50;58.80;;;;;;5034248;28;20464;-76
2023/05/08 11:11:32;;;;;;;4.40;2.23;;;17.60;58.20;;;;;;5034655;28;20464;-76
2023/05/08 11:14:10;;;;;;;2.90;2.17;;;17.60;59.00;;;;;;5030916;28;20481;-76
2023/05/08 11:17:07;;;;;;;4.23;2.80;;;17.70;58.70;;;;;;5056280;28;20472;-76
2023/05/08 11:19:35;;;;;;;2.17;2.07;;;17.70;57.80;;;;;;5034673;28;20508;-76
2023/05/08 11:22:15;;;;;;;3.87;2.20;;;17.80;58.40;;;;;;5033780;28;20471;-76
2023/05/08 11:24:51;;;;;;;3.80;2.47;;;17.80;58.60;;;;;;5024947;28;20482;-76
2023/05/08 11:27:18;;;;;;;2.43;2.23;;;17.80;56.70;;;;;;5063060;28;20471;-76
2023/05/08 11:29:45;;;;;;;3.63;1.90;;;17.90;56.70;;;;;;5034299;28;20499;-76
2023/05/08 11:32:12;;;;;;;2.43;2.10;;;17.90;56.80;;;;;;5049770;28;20532;-76
2023/05/08 11:34:46;;;;;;;2.50;2.23;;;17.90;57.30;;;;;;5053286;28;20475;-76
2023/05/08 11:37:18;;;;;;;3.70;1.90;;;17.90;56.10;;;;;;5045904;28;20485;-75
2023/05/08 11:39:45;;;;;;;2.43;2.07;;;17.90;55.70;;;;;;5065893;28;20482;-75
2023/05/08 11:45:14;;;;;;;1.70;1.60;;;17.90;55.60;;;;;;5137109;27;20589;-75
2023/05/08 11:47:43;;;;;;;3.77;2.43;;;17.90;55.10;;;;;;5151704;27;20469;-76
2023/05/08 11:50:11;;;;;;;4.00;2.20;;;17.90;55.70;;;;;;5151313;27;20455;-76
2023/05/08 11:52:40;;;;;;;2.50;1.80;;;17.90;55.40;;;;;;5151966;27;20459;-76
2023/05/08 11:55:11;;;;;;;2.63;2.43;;;18.00;55.00;;;;;;5151161;27;20455;-76
2023/05/08 11:57:38;;;;;;;2.83;2.30;;;18.00;55.70;;;;;;5151864;27;20459;-76
2023/05/08 12:00:06;;;;;;;2.40;2.20;;;18.10;55.30;;;;;;5142683;27;20465;-76
2023/05/08 12:02:40;;;;;;;3.03;2.00;;;18.10;55.10;;;;;;5151348;27;20956;-76
2023/05/08 12:05:08;;;;;;;2.73;2.53;;;18.20;55.30;;;;;;5149969;27;20508;-76
2023/05/08 12:07:45;;;;;;;2.13;1.93;;;18.20;54.50;;;;;;5151244;27;20494;-76
2023/05/08 12:10:12;;;;;;;2.53;1.87;;;18.30;55.00;;;;;;5174562;27;20473;-75
2023/05/08 12:12:40;;;;;;;1.90;1.80;;;18.30;54.40;;;;;;5151845;27;20463;-76
2023/05/08 12:15:08;;;;;;;1.87;1.77;;;18.30;54.00;;;;;;5151883;27;20523;-75
2023/05/08 12:17:40;;;;;;;2.40;2.20;;;18.30;53.80;;;;;;5153133;27;20470;-76
2023/05/08 12:20:14;;;;;;;1.87;1.67;;;18.30;53.10;;;;;;5150597;27;20753;-76
2023/05/08 12:22:42;;;;;;;2.07;1.87;;;18.30;52.60;;;;;;5151350;27;20466;-76
2023/05/08 12:25:11;;;;;;;3.03;2.50;;;18.40;52.90;;;;;;5150444;27;20532;-75
2023/05/08 12:27:39;;;;;;;4.23;1.70;;;18.40;53.30;;;;;;5151128;27;20530;-76
2023/05/08 12:30:08;;;;;;;2.10;2.00;;;18.50;53.30;;;;;;5151403;27;20537;-75
2023/05/08 12:32:37;;;;;;;2.60;2.20;;;18.50;53.70;;;;;;5150586;27;20459;-76
2023/05/08 12:35:06;;;;;;;2.07;1.97;;;18.60;54.00;;;;;;5150914;27;20478;-75
2023/05/08 12:37:33;;;;;;;2.27;2.07;;;18.60;53.80;;;;;;5150293;27;20516;-75
2023/05/08 12:40:00;;;;;;;2.67;2.00;;;18.60;52.60;;;;;;5151268;27;20537;-75
2023/05/08 12:42:43;;;;;;;3.03;2.20;;;18.50;51.60;;;;;;5149980;27;20952;-75
2023/05/08 12:45:17;;;;;;;2.20;2.07;;;18.50;50.90;;;;;;5109271;27;20465;-74
2023/05/08 12:47:46;;;;;;;3.27;2.30;;;18.50;51.70;;;;;;5109243;27;20456;-76
2023/05/08 12:50:16;;;;;;;4.53;2.47;;;18.60;51.30;;;;;;5109208;27;20479;-76
2023/05/08 12:52:44;;;;;;;3.70;2.40;;;18.50;51.10;;;;;;5108895;27;20934;-74
2023/05/08 12:55:22;;;;;;;1.63;1.53;;;18.50;51.60;;;;;;5102962;27;20473;-76
2023/05/08 12:57:50;;;;;;;4.13;2.10;;;18.50;51.30;;;;;;5095230;28;20480;-75
2023/05/08 13:00:18;;;;;;;2.40;1.97;;;18.50;51.10;;;;;;5096344;28;20492;-75
2023/05/08 13:02:52;;;;;;;3.87;2.33;;;18.60;51.10;;;;;;5095196;28;20469;-75
2023/05/08 13:05:22;;;;;;;2.07;1.70;;;18.60;51.50;;;;;;5095441;28;20472;-75
2023/05/08 13:07:50;;;;;;;4.07;2.07;;;18.60;50.00;;;;;;5095140;27;20511;-76
2023/05/08 13:10:17;;;;;;;2.90;1.77;;;18.70;48.60;;;;;;5095207;28;20859;-76
2023/05/08 13:12:44;;;;;;;3.30;2.20;;;18.70;48.70;;;;;;5094551;28;20538;-76
2023/05/08 13:15:11;;;;;;;2.93;1.70;;;18.60;48.90;;;;;;5095714;28;20469;-77